Maran Canopus — SXUQ — position and weather

sailwx.info

Track history (hours):
 
Tides and Currents Weather Stations Pressure Air Temp Water Temp Dewpoint Dewpoint Depression Visibility Wind Speed Wind Dir Waves Ship Positions

Maran Canopus

Last reported at 2016-Jan-16 02:03 UTC. Time now 2016-Feb-09 17:50 UTC.
Position N 01°11' E 103°38'.
Warning: this ship's position is 24 days out of date.

Length 333 m; draft 11.5 m.

Type: Tanker. MMSI: 240677000.

Date/timePositionNaut miles runAvg speedWind from/ knotsBaromVisibWave heightAir tempDewpointWater temp
2016-Jan-16 02:03N 01°11' E 103°38'510.7
2016-Jan-16 01:33N 01°09' E 103°42'1111.4
2016-Jan-16 00:33N 01°13' E 103°53'9 8.7
2016-Jan-15 23:34N 01°16' E 104°01'2 2.4
2016-Jan-15 22:31N 01°17' E 104°03'0 0.0
2016-Jan-15 19:31N 01°17' E 104°03'0 0.0
2016-Jan-15 17:28N 01°17' E 104°03'0 0.1
2016-Jan-15 12:20N 01°17' E 104°03'0 0.0
2016-Jan-15 11:19N 01°17' E 104°03'0 0.0
2016-Jan-15 04:13N 01°17' E 104°03'0 0.0
2016-Jan-15 02:25N 01°17' E 104°03'0 0.0
2016-Jan-14 22:25N 01°17' E 104°03'0 0.0
2016-Jan-14 13:31N 01°17' E 104°03'0 0.1
2016-Jan-14 12:31N 01°17' E 104°03'0 0.0
2016-Jan-14 11:24N 01°17' E 104°03'0 0.0
2016-Jan-14 10:33N 01°17' E 104°03'0 0.0
2016-Jan-14 09:33N 01°17' E 104°03'0 0.1
2016-Jan-14 08:34N 01°17' E 104°03'0 0.1
2016-Jan-14 07:33N 01°17' E 104°03'4 3.7
2016-Jan-14 06:33N 01°17' E 104°07'2 1.9
2016-Jan-14 05:28N 01°16' E 104°06'910.1
2016-Jan-14 04:34N 01°14' E 103°57'8 8.2
2016-Jan-14 03:34N 01°11' E 103°49'10 9.5
2016-Jan-14 02:32N 01°05' E 103°41'12 8.9
2016-Jan-14 01:14N 01°12' E 103°32'3 0.1
2016-Jan-12 01:29N 01°15' E 103°31'3 1.3
2016-Jan-11 23:19N 01°15' E 103°34'2 2.0
2016-Jan-11 22:31N 01°16' E 103°35'0 0.1
2016-Jan-11 21:22N 01°16' E 103°35'0 0.0
2016-Jan-11 20:33N 01°16' E 103°35'0 0.1
2016-Jan-11 19:26N 01°16' E 103°35'0 0.1
2016-Jan-11 18:33N 01°16' E 103°35'0 0.1
2016-Jan-11 17:30N 01°16' E 103°35'0 0.1
2016-Jan-11 14:21N 01°16' E 103°35'0 0.2
2016-Jan-11 13:33N 01°16' E 103°35'0 0.1
2016-Jan-11 12:18N 01°16' E 103°35'0 0.0
2016-Jan-11 11:32N 01°16' E 103°35'0 0.0
2016-Jan-11 10:33N 01°16' E 103°35'0 0.0
2016-Jan-11 09:33N 01°16' E 103°35'0 0.1
2016-Jan-11 08:33N 01°16' E 103°35'0 0.2
2016-Jan-11 07:33N 01°16' E 103°35'0 0.0
2016-Jan-11 06:33N 01°16' E 103°35'0 0.0
2016-Jan-11 05:31N 01°16' E 103°35'0 0.1
2016-Jan-11 04:33N 01°16' E 103°35'0 0.0
2016-Jan-10 18:08N 01°16' E 103°35'0 0.0
2016-Jan-10 17:27N 01°16' E 103°35'0 0.1
2016-Jan-10 16:33N 01°16' E 103°35'0 0.1
2016-Jan-10 13:17N 01°16' E 103°35'0 0.1
2016-Jan-10 12:33N 01°16' E 103°35'0 0.0
2016-Jan-10 10:25N 01°16' E 103°35'0 0.1
2016-Jan-10 05:25N 01°16' E 103°35'0 0.1
2016-Jan-10 04:30N 01°16' E 103°35'0 0.3
2016-Jan-10 03:22N 01°16' E 103°35'2 2.0
2016-Jan-10 02:34N 01°14' E 103°36'72 9.0
2016-Jan-09 18:33N 01°46' E 102°31'1111.3
2016-Jan-09 17:33N 01°50' E 102°20'  
Track history (hours):
 
Tides and Currents Weather Stations Pressure Air Temp Water Temp Dewpoint Dewpoint Depression Visibility Wind Speed Wind Dir Waves Ship Positions

Maran Canopus

Last reported at 2016-Jan-16 02:03 UTC. Time now 2016-Feb-09 17:50 UTC.
Position N 01°11' E 103°38'.
Warning: this ship's position is 24 days out of date.

Length 333 m; draft 11.5 m.

Type: Tanker. MMSI: 240677000.

Date/timePositionNaut miles runAvg speedWind from/ knotsBaromVisibWave heightAir tempDewpointWater temp
2016-Jan-16 02:03N 01°11' E 103°38'510.7
2016-Jan-16 01:33N 01°09' E 103°42'1111.4
2016-Jan-16 00:33N 01°13' E 103°53'9 8.7
2016-Jan-15 23:34N 01°16' E 104°01'2 2.4
2016-Jan-15 22:31N 01°17' E 104°03'0 0.0
2016-Jan-15 19:31N 01°17' E 104°03'0 0.0
2016-Jan-15 17:28N 01°17' E 104°03'0 0.1
2016-Jan-15 12:20N 01°17' E 104°03'0 0.0
2016-Jan-15 11:19N 01°17' E 104°03'0 0.0
2016-Jan-15 04:13N 01°17' E 104°03'0 0.0
2016-Jan-15 02:25N 01°17' E 104°03'0 0.0
2016-Jan-14 22:25N 01°17' E 104°03'0 0.0
2016-Jan-14 13:31N 01°17' E 104°03'0 0.1
2016-Jan-14 12:31N 01°17' E 104°03'0 0.0
2016-Jan-14 11:24N 01°17' E 104°03'0 0.0
2016-Jan-14 10:33N 01°17' E 104°03'0 0.0
2016-Jan-14 09:33N 01°17' E 104°03'0 0.1
2016-Jan-14 08:34N 01°17' E 104°03'0 0.1
2016-Jan-14 07:33N 01°17' E 104°03'4 3.7
2016-Jan-14 06:33N 01°17' E 104°07'2 1.9
2016-Jan-14 05:28N 01°16' E 104°06'910.1
2016-Jan-14 04:34N 01°14' E 103°57'8 8.2
2016-Jan-14 03:34N 01°11' E 103°49'10 9.5
2016-Jan-14 02:32N 01°05' E 103°41'12 8.9
2016-Jan-14 01:14N 01°12' E 103°32'3 0.1
2016-Jan-12 01:29N 01°15' E 103°31'3 1.3
2016-Jan-11 23:19N 01°15' E 103°34'2 2.0
2016-Jan-11 22:31N 01°16' E 103°35'0 0.1
2016-Jan-11 21:22N 01°16' E 103°35'0 0.0
2016-Jan-11 20:33N 01°16' E 103°35'0 0.1
2016-Jan-11 19:26N 01°16' E 103°35'0 0.1
2016-Jan-11 18:33N 01°16' E 103°35'0 0.1
2016-Jan-11 17:30N 01°16' E 103°35'0 0.1
2016-Jan-11 14:21N 01°16' E 103°35'0 0.2
2016-Jan-11 13:33N 01°16' E 103°35'0 0.1
2016-Jan-11 12:18N 01°16' E 103°35'0 0.0
2016-Jan-11 11:32N 01°16' E 103°35'0 0.0
2016-Jan-11 10:33N 01°16' E 103°35'0 0.0
2016-Jan-11 09:33N 01°16' E 103°35'0 0.1
2016-Jan-11 08:33N 01°16' E 103°35'0 0.2
2016-Jan-11 07:33N 01°16' E 103°35'0 0.0
2016-Jan-11 06:33N 01°16' E 103°35'0 0.0
2016-Jan-11 05:31N 01°16' E 103°35'0 0.1
2016-Jan-11 04:33N 01°16' E 103°35'0 0.0
2016-Jan-10 18:08N 01°16' E 103°35'0 0.0
2016-Jan-10 17:27N 01°16' E 103°35'0 0.1
2016-Jan-10 16:33N 01°16' E 103°35'0 0.1
2016-Jan-10 13:17N 01°16' E 103°35'0 0.1
2016-Jan-10 12:33N 01°16' E 103°35'0 0.0
2016-Jan-10 10:25N 01°16' E 103°35'0 0.1
2016-Jan-10 05:25N 01°16' E 103°35'0 0.1
2016-Jan-10 04:30N 01°16' E 103°35'0 0.3
2016-Jan-10 03:22N 01°16' E 103°35'2 2.0
2016-Jan-10 02:34N 01°14' E 103°36'72 9.0
2016-Jan-09 18:33N 01°46' E 102°31'1111.3
2016-Jan-09 17:33N 01°50' E 102°20'  

Dump ship's entire track history